createdAt,value
2022-08-07T00:00:21.501Z,0.00
2022-08-07T00:02:35.502Z,0.00
2022-08-07T00:02:39.614Z,0.00
2022-08-07T00:03:21.468Z,0.00
2022-08-07T00:04:24.370Z,0.00
2022-08-07T00:05:23.652Z,0.00
2022-08-07T00:06:21.468Z,0.00
2022-08-07T00:07:21.472Z,0.00
2022-08-07T00:08:21.468Z,0.00
2022-08-07T00:09:22.326Z,0.00
2022-08-07T00:10:27.214Z,0.00
2022-08-07T00:11:21.453Z,0.00
2022-08-07T00:12:21.455Z,0.00
2022-08-07T00:13:23.850Z,0.00
2022-08-07T00:14:21.444Z,0.00
2022-08-07T00:15:21.453Z,0.00
2022-08-07T00:16:21.640Z,0.00
2022-08-07T00:17:21.450Z,0.00
2022-08-07T00:18:24.540Z,0.00
2022-08-07T00:19:26.115Z,0.00
2022-08-07T00:20:29.781Z,0.00
2022-08-07T00:21:57.225Z,0.00
2022-08-07T00:22:24.705Z,0.00
2022-08-07T00:23:21.692Z,0.00
2022-08-07T00:24:21.426Z,0.00
2022-08-07T00:25:21.428Z,0.00
2022-08-07T00:26:48.715Z,0.00
2022-08-07T00:27:22.607Z,0.00
2022-08-07T00:28:22.142Z,0.00
2022-08-07T00:29:23.269Z,0.00
2022-08-07T00:30:26.757Z,0.00
2022-08-07T00:31:21.415Z,0.00
2022-08-07T00:32:28.448Z,0.00
2022-08-07T00:33:21.409Z,0.00
2022-08-07T00:34:21.627Z,0.00
2022-08-07T00:35:21.402Z,0.00
2022-08-07T00:36:21.401Z,0.00
2022-08-07T00:37:21.404Z,0.00
2022-08-07T00:38:31.404Z,0.00
2022-08-07T00:39:21.422Z,0.00
2022-08-07T00:40:39.374Z,0.00
2022-08-07T00:41:21.382Z,0.00
2022-08-07T00:42:29.021Z,0.00
2022-08-07T00:44:00.887Z,0.00
2022-08-07T00:44:21.389Z,0.00
2022-08-07T00:45:21.377Z,0.00
2022-08-07T00:46:21.383Z,0.00
2022-08-07T00:48:09.518Z,0.00
2022-08-07T00:48:24.893Z,0.00
2022-08-07T00:49:24.836Z,0.00
2022-08-07T00:50:50.817Z,0.00
2022-08-07T00:51:21.365Z,0.00
2022-08-07T00:52:21.362Z,0.00
2022-08-07T00:53:21.355Z,0.00
2022-08-07T00:54:22.395Z,0.00
2022-08-07T00:55:46.601Z,0.00
2022-08-07T00:56:21.359Z,0.00
2022-08-07T00:57:21.354Z,0.00
2022-08-07T00:58:21.347Z,0.00
2022-08-07T00:59:35.068Z,0.00
2022-08-07T01:00:21.353Z,0.00
2022-08-07T01:01:21.442Z,0.00
2022-08-07T01:02:28.341Z,0.00
2022-08-07T01:03:21.332Z,0.00
2022-08-07T01:04:24.590Z,0.00
2022-08-07T01:05:24.641Z,0.00
2022-08-07T01:06:21.853Z,0.00
2022-08-07T01:07:21.339Z,0.00
2022-08-07T01:08:21.320Z,0.00
2022-08-07T01:10:04.708Z,0.00
2022-08-07T01:10:21.318Z,0.00
2022-08-07T01:12:09.677Z,0.00
2022-08-07T01:12:29.800Z,0.00
2022-08-07T01:13:21.323Z,0.00
2022-08-07T01:14:28.725Z,0.00
2022-08-07T01:15:21.353Z,0.00
2022-08-07T01:16:30.582Z,0.00
2022-08-07T01:17:21.301Z,0.00
2022-08-07T01:18:21.302Z,0.00
2022-08-07T01:19:21.295Z,0.00
2022-08-07T01:20:21.289Z,0.00
2022-08-07T01:21:24.385Z,0.00
2022-08-07T01:22:22.947Z,0.00
2022-08-07T01:23:21.285Z,0.00
2022-08-07T01:24:21.765Z,0.00
2022-08-07T01:25:54.668Z,0.00
2022-08-07T01:26:21.284Z,0.00
2022-08-07T01:27:21.284Z,0.00
2022-08-07T01:28:21.294Z,0.00
2022-08-07T01:29:22.115Z,0.00
2022-08-07T01:30:21.265Z,0.00
2022-08-07T01:31:21.269Z,0.00
2022-08-07T01:32:22.476Z,0.00
2022-08-07T01:33:21.261Z,0.00
2022-08-07T01:34:30.613Z,0.00
2022-08-07T01:35:21.255Z,0.00
2022-08-07T01:36:21.252Z,0.00
2022-08-07T01:37:21.249Z,0.00
2022-08-07T01:38:24.996Z,0.00
2022-08-07T01:39:21.304Z,0.00
2022-08-07T01:40:21.253Z,0.00
2022-08-07T01:41:25.939Z,0.00
2022-08-07T01:42:38.654Z,0.00
2022-08-07T01:43:21.231Z,0.00
2022-08-07T01:44:21.236Z,0.00
2022-08-07T01:45:22.763Z,0.00
2022-08-07T01:46:21.459Z,0.00
2022-08-07T01:48:29.855Z,0.00
2022-08-07T01:48:30.530Z,0.00
2022-08-07T01:49:22.135Z,0.00
2022-08-07T01:50:29.090Z,0.00
2022-08-07T01:52:02.129Z,0.00
2022-08-07T01:52:21.211Z,0.00
2022-08-07T01:53:21.788Z,0.00
2022-08-07T01:54:33.209Z,0.00
2022-08-07T01:55:22.226Z,0.00
2022-08-07T01:56:21.203Z,0.00
2022-08-07T01:57:24.940Z,0.00
2022-08-07T01:58:28.875Z,0.00
2022-08-07T01:59:21.201Z,0.00
2022-08-07T02:00:28.869Z,0.00
2022-08-07T02:01:59.179Z,0.00
2022-08-07T02:02:32.803Z,0.00
2022-08-07T02:03:26.272Z,0.00
2022-08-07T02:04:21.270Z,0.00
2022-08-07T02:05:43.426Z,0.00
2022-08-07T02:06:31.737Z,0.00
2022-08-07T02:07:21.277Z,0.00
2022-08-07T02:08:21.181Z,0.00
2022-08-07T02:09:51.854Z,0.00
2022-08-07T02:10:21.165Z,0.00
2022-08-07T02:11:30.750Z,0.00
2022-08-07T02:12:29.044Z,0.00
2022-08-07T02:13:21.161Z,0.00
2022-08-07T02:14:36.027Z,0.00
2022-08-07T02:15:21.155Z,0.00
2022-08-07T02:16:28.522Z,0.00
2022-08-07T02:17:27.398Z,0.00
2022-08-07T02:18:21.150Z,0.00
2022-08-07T02:20:04.043Z,0.00
2022-08-07T02:20:23.668Z,0.00
2022-08-07T02:21:21.144Z,0.00
2022-08-07T02:22:21.135Z,0.00
2022-08-07T02:23:24.047Z,0.00
2022-08-07T02:24:21.138Z,0.00
2022-08-07T02:25:21.127Z,0.00
2022-08-07T02:26:32.588Z,0.00
2022-08-07T02:27:21.166Z,0.00
2022-08-07T02:28:24.772Z,0.00
2022-08-07T02:29:21.964Z,0.00
2022-08-07T02:30:21.117Z,0.00
2022-08-07T02:31:28.745Z,0.00
2022-08-07T02:32:23.388Z,0.00
2022-08-07T02:33:21.115Z,0.00
2022-08-07T02:34:21.111Z,0.00
2022-08-07T02:36:29.618Z,0.00
2022-08-07T02:36:30.302Z,0.00
2022-08-07T02:37:21.109Z,0.00
2022-08-07T02:38:22.730Z,0.00
2022-08-07T02:39:43.755Z,0.00
2022-08-07T02:40:30.575Z,0.00
2022-08-07T02:41:21.749Z,0.00
2022-08-07T02:42:21.100Z,0.00
2022-08-07T02:43:21.093Z,0.00
2022-08-07T02:44:21.071Z,0.00
2022-08-07T02:46:00.351Z,0.00
2022-08-07T02:46:21.072Z,0.00
2022-08-07T02:47:23.648Z,0.00
2022-08-07T02:48:21.067Z,0.00
2022-08-07T02:49:29.257Z,0.00
2022-08-07T02:50:21.065Z,0.00
2022-08-07T02:51:41.921Z,0.00
2022-08-07T02:52:21.417Z,0.00
2022-08-07T02:53:21.056Z,0.00
2022-08-07T02:54:21.069Z,0.00
2022-08-07T02:55:27.726Z,0.00
2022-08-07T02:56:21.862Z,0.00
2022-08-07T02:57:21.143Z,0.00
2022-08-07T02:58:21.559Z,0.00
2022-08-07T02:59:24.089Z,0.00
2022-08-07T03:00:21.026Z,0.00
2022-08-07T03:01:35.791Z,0.00
2022-08-07T03:02:21.096Z,0.00
2022-08-07T03:03:22.621Z,0.00
2022-08-07T03:04:21.027Z,0.00
2022-08-07T03:05:23.119Z,0.00
2022-08-07T03:06:26.149Z,0.00
2022-08-07T03:07:25.708Z,0.00
2022-08-07T03:08:26.737Z,0.00
2022-08-07T03:09:43.585Z,0.00
2022-08-07T03:10:23.487Z,0.00
2022-08-07T03:11:21.003Z,0.00
2022-08-07T03:12:22.059Z,0.00
2022-08-07T03:13:21.002Z,0.00
2022-08-07T03:14:22.543Z,0.00
2022-08-07T03:15:30.127Z,0.00
2022-08-07T03:16:22.834Z,0.00
2022-08-07T03:17:22.206Z,0.00
2022-08-07T03:18:20.984Z,0.00
2022-08-07T03:19:20.978Z,0.00
2022-08-07T03:20:20.968Z,0.00
2022-08-07T03:21:20.972Z,0.00
2022-08-07T03:22:20.967Z,0.00
2022-08-07T03:23:20.962Z,0.00
2022-08-07T03:24:27.206Z,0.00
2022-08-07T03:25:21.366Z,0.00
2022-08-07T03:26:23.691Z,0.00
2022-08-07T03:27:30.531Z,0.00
2022-08-07T03:28:38.067Z,0.00
2022-08-07T03:29:20.950Z,0.00
2022-08-07T03:30:20.948Z,0.00
2022-08-07T03:31:26.125Z,0.00
2022-08-07T03:32:20.939Z,0.00
2022-08-07T03:33:20.934Z,0.00
2022-08-07T03:34:21.947Z,0.00
2022-08-07T03:35:26.198Z,0.00
2022-08-07T03:36:20.921Z,0.00
2022-08-07T03:37:20.929Z,0.00
2022-08-07T03:38:29.763Z,0.00
2022-08-07T03:39:58.852Z,0.00
2022-08-07T03:40:22.278Z,0.00
2022-08-07T03:41:20.910Z,0.00
2022-08-07T03:42:20.911Z,0.00
2022-08-07T03:43:20.897Z,0.00
2022-08-07T03:44:21.776Z,0.00
2022-08-07T03:45:31.092Z,0.00
2022-08-07T03:46:20.900Z,0.00
2022-08-07T03:47:20.895Z,0.00
2022-08-07T03:48:20.881Z,0.00
2022-08-07T03:49:20.877Z,0.00
2022-08-07T03:50:23.105Z,0.00
2022-08-07T03:51:20.930Z,0.00
2022-08-07T03:52:22.887Z,0.00
2022-08-07T03:53:20.872Z,0.00
2022-08-07T03:54:35.232Z,0.00
2022-08-07T03:55:20.879Z,0.00
2022-08-07T03:56:33.166Z,0.00
2022-08-07T03:58:34.960Z,0.00
2022-08-07T03:59:05.735Z,0.00
2022-08-07T03:59:21.084Z,0.00
2022-08-07T04:00:20.992Z,0.00
2022-08-07T04:01:20.845Z,0.00
2022-08-07T04:02:20.854Z,0.00
2022-08-07T04:03:20.857Z,0.00
2022-08-07T04:04:20.836Z,0.00
2022-08-07T04:05:24.011Z,0.00
2022-08-07T04:06:37.026Z,0.00
2022-08-07T04:07:22.903Z,0.00
2022-08-07T04:08:20.934Z,0.00
2022-08-07T04:09:23.065Z,0.00
2022-08-07T04:10:20.813Z,0.00
2022-08-07T04:12:20.776Z,0.00
2022-08-07T04:12:27.200Z,0.00
2022-08-07T04:13:20.811Z,0.00
2022-08-07T04:14:37.739Z,0.00
2022-08-07T04:15:20.800Z,0.00
2022-08-07T04:16:31.349Z,0.00
2022-08-07T04:17:21.863Z,0.00
2022-08-07T04:18:57.970Z,0.00
2022-08-07T04:19:20.780Z,0.00
2022-08-07T04:20:20.788Z,0.00
2022-08-07T04:21:20.780Z,0.00
2022-08-07T04:22:20.773Z,0.00
2022-08-07T04:23:20.767Z,0.00
2022-08-07T04:24:30.747Z,0.00
2022-08-07T04:25:20.779Z,0.00
2022-08-07T04:26:21.940Z,0.00
2022-08-07T04:27:25.704Z,0.00
2022-08-07T04:28:21.722Z,0.00
2022-08-07T04:29:20.750Z,0.00
2022-08-07T04:30:21.197Z,0.00
2022-08-07T04:31:38.713Z,0.00
2022-08-07T04:32:27.253Z,0.00
2022-08-07T04:33:20.750Z,0.00
2022-08-07T04:34:24.266Z,0.00
2022-08-07T04:35:21.418Z,0.00
2022-08-07T04:36:22.901Z,0.00
2022-08-07T04:37:20.787Z,0.00
2022-08-07T04:38:20.729Z,0.00
2022-08-07T04:39:25.861Z,0.00
2022-08-07T04:40:20.726Z,0.00
2022-08-07T04:41:20.723Z,0.00
2022-08-07T04:42:20.710Z,0.00
2022-08-07T04:43:20.717Z,0.00
2022-08-07T04:44:20.707Z,0.00
2022-08-07T04:45:44.487Z,0.00
2022-08-07T04:46:29.632Z,0.00
2022-08-07T04:47:56.737Z,0.00
2022-08-07T04:48:20.708Z,0.00
2022-08-07T04:49:24.814Z,0.00
2022-08-07T04:50:22.298Z,0.00
2022-08-07T04:51:20.678Z,0.00
2022-08-07T04:52:20.679Z,0.00
2022-08-07T04:53:39.966Z,0.00
2022-08-07T04:54:22.595Z,0.00
2022-08-07T04:58:10.641Z,0.00
2022-08-07T04:58:11.334Z,0.00
2022-08-07T04:58:16.495Z,0.00
2022-08-07T04:58:47.296Z,0.00
2022-08-07T05:00:08.029Z,0.00
2022-08-07T05:00:30.113Z,0.00
2022-08-07T05:01:20.725Z,0.00
2022-08-07T05:02:20.820Z,5.63
2022-08-07T05:04:00.168Z,5.63
2022-08-07T05:04:20.627Z,5.63
2022-08-07T05:05:52.186Z,11.25
2022-08-07T05:06:20.631Z,16.88
2022-08-07T05:07:21.139Z,16.88
2022-08-07T05:08:59.167Z,22.50
2022-08-07T05:09:43.060Z,22.50
2022-08-07T05:10:20.619Z,22.50
2022-08-07T05:11:26.155Z,22.50
2022-08-07T05:12:27.125Z,22.50
2022-08-07T05:14:53.043Z,28.13
2022-08-07T05:14:55.368Z,22.50
2022-08-07T05:15:23.074Z,28.13
2022-08-07T05:16:20.598Z,33.75
2022-08-07T05:17:52.869Z,33.75
2022-08-07T05:18:20.632Z,39.38
2022-08-07T05:19:20.592Z,39.38
2022-08-07T05:20:20.587Z,33.75
2022-08-07T05:22:00.519Z,33.75
2022-08-07T05:22:26.753Z,39.38
2022-08-07T05:23:20.589Z,39.38
2022-08-07T05:24:20.582Z,39.38
2022-08-07T05:25:25.957Z,39.38
2022-08-07T05:26:23.991Z,45.00
2022-08-07T05:28:03.182Z,45.00
2022-08-07T05:28:23.421Z,45.00
2022-08-07T05:29:20.562Z,45.00
2022-08-07T05:30:30.018Z,45.00
2022-08-07T05:31:20.563Z,45.00
2022-08-07T05:32:20.566Z,45.00
2022-08-07T05:33:20.854Z,45.00
2022-08-07T05:34:20.559Z,45.00
2022-08-07T05:35:23.804Z,45.00
2022-08-07T05:36:22.626Z,45.00
2022-08-07T05:37:25.337Z,45.00
2022-08-07T05:38:58.365Z,45.00
2022-08-07T05:40:16.646Z,45.00
2022-08-07T05:40:20.748Z,45.00
2022-08-07T05:41:21.889Z,45.00
2022-08-07T05:42:34.333Z,50.63
2022-08-07T05:43:49.890Z,50.63
2022-08-07T05:44:29.246Z,61.88
2022-08-07T05:45:46.988Z,67.50
2022-08-07T05:46:20.535Z,73.13
2022-08-07T05:47:20.915Z,78.75
2022-08-07T05:48:20.538Z,78.75
2022-08-07T05:49:20.523Z,78.75
2022-08-07T05:50:20.531Z,73.13
2022-08-07T05:51:20.519Z,67.50
2022-08-07T05:52:20.704Z,56.25
2022-08-07T05:54:13.597Z,50.63
2022-08-07T05:54:31.355Z,61.88
2022-08-07T05:55:20.521Z,78.75
2022-08-07T05:56:20.514Z,101.25
2022-08-07T05:57:20.567Z,118.13
2022-08-07T05:58:30.251Z,123.75
2022-08-07T05:59:20.832Z,140.63
2022-08-07T06:00:20.514Z,140.63
2022-08-07T06:01:20.554Z,140.63
2022-08-07T06:02:28.537Z,129.38
2022-08-07T06:03:20.531Z,129.38
2022-08-07T06:04:20.521Z,123.75
2022-08-07T06:05:28.086Z,123.75
2022-08-07T06:06:20.521Z,118.13
2022-08-07T06:07:23.156Z,123.75
2022-08-07T06:08:29.897Z,129.38
2022-08-07T06:09:20.514Z,135.00
2022-08-07T06:10:20.522Z,135.00
2022-08-07T06:11:20.536Z,135.00
2022-08-07T06:12:20.953Z,135.00
2022-08-07T06:13:20.864Z,135.00
2022-08-07T06:14:21.033Z,135.00
2022-08-07T06:15:20.531Z,129.38
2022-08-07T06:16:20.528Z,135.00
2022-08-07T06:17:22.284Z,135.00
2022-08-07T06:18:20.535Z,129.38
2022-08-07T06:19:47.442Z,123.75
2022-08-07T06:20:31.848Z,78.75
2022-08-07T06:22:14.978Z,39.38
2022-08-07T06:22:23.938Z,33.75
2022-08-07T06:23:24.825Z,22.50
2022-08-07T06:24:38.695Z,22.50
2022-08-07T06:25:20.526Z,16.88
2022-08-07T06:26:20.525Z,16.88
2022-08-07T06:27:22.796Z,16.88
2022-08-07T06:28:27.651Z,11.25
2022-08-07T06:29:20.528Z,11.25
2022-08-07T06:30:32.226Z,11.25
2022-08-07T06:31:20.528Z,11.25
2022-08-07T06:32:20.533Z,11.25
2022-08-07T06:33:20.526Z,11.25
2022-08-07T06:34:21.551Z,11.25
2022-08-07T06:35:20.528Z,11.25
2022-08-07T06:36:34.786Z,11.25
2022-08-07T06:37:20.754Z,11.25
2022-08-07T06:38:20.909Z,11.25
2022-08-07T06:40:17.915Z,11.25
2022-08-07T06:40:21.594Z,11.25
2022-08-07T06:41:29.384Z,11.25
2022-08-07T06:42:26.586Z,11.25
2022-08-07T06:43:21.334Z,11.25
2022-08-07T06:44:20.533Z,11.25
2022-08-07T06:45:21.205Z,5.63
2022-08-07T06:46:34.997Z,5.63
2022-08-07T06:47:26.979Z,5.63
2022-08-07T06:48:25.313Z,5.63
2022-08-07T06:49:20.528Z,11.25
2022-08-07T06:50:20.527Z,11.25
2022-08-07T06:51:24.507Z,11.25
2022-08-07T06:52:32.079Z,11.25
2022-08-07T06:55:29.875Z,11.25
2022-08-07T06:55:32.195Z,5.63
2022-08-07T06:55:33.713Z,5.63
2022-08-07T06:56:20.510Z,5.63
2022-08-07T06:57:20.576Z,5.63
2022-08-07T06:58:21.454Z,5.63
2022-08-07T07:00:14.030Z,5.63
2022-08-07T07:00:20.503Z,11.25
2022-08-07T07:01:20.630Z,11.25
2022-08-07T07:02:48.488Z,11.25
2022-08-07T07:03:39.627Z,11.25
2022-08-07T07:04:28.106Z,11.25
2022-08-07T07:06:02.788Z,0.00
2022-08-07T07:06:24.000Z,0.00
2022-08-07T07:07:59.840Z,0.00
2022-08-07T07:08:26.465Z,0.00
2022-08-07T07:09:20.517Z,0.00
2022-08-07T07:10:21.333Z,0.00
2022-08-07T07:12:07.700Z,5.63
2022-08-07T07:12:30.700Z,5.63
2022-08-07T07:13:56.245Z,5.63
2022-08-07T07:14:21.708Z,5.63
2022-08-07T07:15:23.980Z,11.25
2022-08-07T07:16:20.487Z,11.25
2022-08-07T07:17:20.478Z,16.88
2022-08-07T07:18:37.669Z,16.88
2022-08-07T07:19:58.049Z,22.50
2022-08-07T07:20:20.485Z,22.50
2022-08-07T07:21:20.483Z,28.13
2022-08-07T07:22:35.871Z,33.75
2022-08-07T07:24:10.106Z,28.13
2022-08-07T07:24:20.485Z,28.13
2022-08-07T07:26:32.717Z,28.13
2022-08-07T07:26:33.920Z,28.13
2022-08-07T07:27:20.522Z,33.75
2022-08-07T07:28:42.670Z,33.75
2022-08-07T07:29:55.868Z,33.75
2022-08-07T07:30:32.569Z,33.75
2022-08-07T07:31:21.606Z,33.75
2022-08-07T07:32:20.477Z,33.75
2022-08-07T07:33:20.467Z,33.75
2022-08-07T07:34:20.470Z,33.75
2022-08-07T07:35:20.464Z,33.75
2022-08-07T07:36:20.474Z,33.75
2022-08-07T07:37:44.003Z,33.75
2022-08-07T07:38:20.461Z,33.75
2022-08-07T07:39:20.567Z,33.75
2022-08-07T07:40:20.470Z,33.75
2022-08-07T07:41:20.476Z,33.75
2022-08-07T07:42:20.793Z,39.38
2022-08-07T07:43:27.730Z,39.38
2022-08-07T07:44:25.745Z,33.75
2022-08-07T07:45:24.508Z,45.00
2022-08-07T07:46:37.148Z,39.38
2022-08-07T07:47:23.950Z,39.38
2022-08-07T07:48:34.732Z,39.38
2022-08-07T07:50:33.398Z,39.38
2022-08-07T07:50:36.255Z,39.38
2022-08-07T07:51:20.466Z,39.38
2022-08-07T07:52:20.464Z,39.38
2022-08-07T07:53:25.606Z,39.38
2022-08-07T07:54:20.476Z,39.38
2022-08-07T07:55:20.459Z,39.38
2022-08-07T07:56:30.669Z,39.38
2022-08-07T07:57:20.502Z,39.38
2022-08-07T07:58:20.469Z,39.38
2022-08-07T07:59:51.476Z,39.38
2022-08-07T08:00:28.865Z,39.38
2022-08-07T08:02:03.892Z,39.38
2022-08-07T08:02:34.124Z,45.00
2022-08-07T08:04:06.281Z,45.00
2022-08-07T08:04:25.374Z,45.00
2022-08-07T08:05:20.461Z,45.00
2022-08-07T08:06:20.475Z,45.00
2022-08-07T08:07:20.470Z,45.00
2022-08-07T08:08:32.289Z,45.00
2022-08-07T08:09:20.495Z,56.25
2022-08-07T08:10:37.999Z,50.63
2022-08-07T08:11:59.921Z,50.63
2022-08-07T08:12:50.337Z,50.63
2022-08-07T08:13:20.478Z,50.63
2022-08-07T08:14:24.554Z,50.63
2022-08-07T08:15:23.178Z,50.63
2022-08-07T08:16:20.476Z,56.25
2022-08-07T08:17:57.587Z,56.25
2022-08-07T08:18:20.725Z,56.25
2022-08-07T08:20:17.734Z,56.25
2022-08-07T08:20:23.097Z,56.25
2022-08-07T08:21:20.484Z,61.88
2022-08-07T08:22:20.494Z,56.25
2022-08-07T08:23:20.681Z,61.88
2022-08-07T08:24:44.942Z,61.88
2022-08-07T08:25:27.078Z,61.88
2022-08-07T08:26:20.477Z,56.25
2022-08-07T08:27:20.672Z,56.25
2022-08-07T08:28:24.115Z,56.25
2022-08-07T08:29:20.476Z,56.25
2022-08-07T08:30:20.533Z,56.25
2022-08-07T08:31:30.169Z,56.25
2022-08-07T08:32:25.403Z,56.25
2022-08-07T08:33:20.558Z,56.25
2022-08-07T08:34:27.133Z,56.25
2022-08-07T08:35:20.486Z,56.25
2022-08-07T08:36:25.670Z,56.25
2022-08-07T08:37:59.271Z,56.25
2022-08-07T08:38:20.506Z,56.25
2022-08-07T08:39:20.600Z,56.25
2022-08-07T08:40:23.563Z,61.88
2022-08-07T08:41:20.495Z,61.88
2022-08-07T08:42:20.631Z,61.88
2022-08-07T08:43:20.518Z,61.88
2022-08-07T08:44:21.282Z,61.88
2022-08-07T08:45:20.516Z,61.88
2022-08-07T08:46:22.005Z,61.88
2022-08-07T08:47:20.576Z,61.88
2022-08-07T08:48:20.665Z,61.88
2022-08-07T08:49:33.525Z,61.88
2022-08-07T08:50:28.173Z,67.50
2022-08-07T08:51:29.546Z,67.50
2022-08-07T08:52:20.493Z,61.88
2022-08-07T08:53:20.504Z,61.88
2022-08-07T08:54:20.516Z,61.88
2022-08-07T08:55:21.289Z,61.88
2022-08-07T08:56:24.414Z,56.25
2022-08-07T08:57:20.557Z,56.25
2022-08-07T08:58:28.304Z,56.25
2022-08-07T08:59:20.506Z,56.25
2022-08-07T09:00:20.498Z,56.25
2022-08-07T09:01:20.586Z,39.38
2022-08-07T09:02:36.418Z,16.88
2022-08-07T09:03:20.498Z,11.25
2022-08-07T09:04:26.079Z,5.63
2022-08-07T09:05:24.965Z,5.63
2022-08-07T09:06:20.507Z,5.63
2022-08-07T09:07:23.128Z,5.63
2022-08-07T09:08:28.135Z,5.63
2022-08-07T09:09:23.679Z,5.63
2022-08-07T09:10:20.550Z,5.63
2022-08-07T09:11:24.232Z,5.63
2022-08-07T09:12:31.914Z,5.63
2022-08-07T09:13:20.497Z,5.63
2022-08-07T09:14:20.504Z,5.63
2022-08-07T09:16:22.935Z,5.63
2022-08-07T09:16:26.612Z,5.63
2022-08-07T09:17:20.546Z,5.63
2022-08-07T09:18:22.817Z,5.63
2022-08-07T09:19:51.017Z,5.63
2022-08-07T09:20:34.956Z,5.63
2022-08-07T09:21:57.894Z,0.00
2022-08-07T09:24:28.321Z,0.00
2022-08-07T09:24:33.424Z,0.00
2022-08-07T09:24:53.917Z,0.00
2022-08-07T09:25:20.508Z,0.00
2022-08-07T09:26:20.930Z,0.00
2022-08-07T09:27:20.493Z,0.00
2022-08-07T09:30:04.271Z,0.00
2022-08-07T09:30:04.373Z,0.00
2022-08-07T09:30:25.409Z,0.00
2022-08-07T09:31:20.510Z,0.00
2022-08-07T09:32:20.998Z,0.00
2022-08-07T09:33:41.271Z,0.00
2022-08-07T09:34:20.887Z,0.00
2022-08-07T09:36:05.148Z,0.00
2022-08-07T09:36:20.492Z,0.00
2022-08-07T09:37:20.538Z,0.00
2022-08-07T09:38:21.092Z,0.00
2022-08-07T09:39:54.354Z,0.00
2022-08-07T09:40:20.522Z,0.00
2022-08-07T09:41:20.479Z,0.00
2022-08-07T09:42:23.154Z,0.00
2022-08-07T09:43:20.488Z,0.00
2022-08-07T09:44:32.700Z,0.00
2022-08-07T09:47:26.104Z,0.00
2022-08-07T09:47:51.488Z,0.00
2022-08-07T09:47:52.063Z,0.00
2022-08-07T09:48:20.840Z,0.00
2022-08-07T09:50:01.876Z,0.00
2022-08-07T09:50:20.477Z,0.00
2022-08-07T09:52:15.822Z,0.00
2022-08-07T09:52:34.838Z,0.00
2022-08-07T09:53:20.465Z,0.00
2022-08-07T09:54:20.473Z,0.00
2022-08-07T09:55:36.840Z,0.00
2022-08-07T09:56:37.748Z,0.00
2022-08-07T09:57:20.473Z,0.00
2022-08-07T09:58:20.458Z,0.00
2022-08-07T09:59:21.667Z,0.00
2022-08-07T10:00:20.477Z,0.00
2022-08-07T10:01:51.439Z,0.00
2022-08-07T10:02:20.465Z,0.00
2022-08-07T10:04:06.407Z,0.00
2022-08-07T10:04:28.195Z,0.00
2022-08-07T10:05:58.923Z,0.00
2022-08-07T10:06:24.606Z,0.00
2022-08-07T10:07:25.953Z,0.00
2022-08-07T10:08:20.455Z,0.00
2022-08-07T10:09:34.144Z,0.00
2022-08-07T10:10:21.442Z,0.00
2022-08-07T10:12:01.485Z,0.00
2022-08-07T10:12:21.710Z,0.00
2022-08-07T10:13:54.697Z,0.00
2022-08-07T10:14:22.979Z,0.00
2022-08-07T10:15:20.447Z,0.00
2022-08-07T10:16:20.440Z,0.00
2022-08-07T10:17:20.438Z,0.00
2022-08-07T10:18:20.435Z,0.00
2022-08-07T10:19:20.442Z,0.00
2022-08-07T10:20:20.579Z,0.00
2022-08-07T10:22:14.698Z,0.00
2022-08-07T10:22:33.398Z,0.00
2022-08-07T10:24:05.380Z,0.00
2022-08-07T10:24:21.469Z,0.00
2022-08-07T10:25:20.789Z,0.00
2022-08-07T10:26:24.659Z,0.00
2022-08-07T10:27:20.471Z,0.00
2022-08-07T10:28:20.426Z,0.00
2022-08-07T10:29:20.441Z,0.00
2022-08-07T10:30:20.435Z,0.00
2022-08-07T10:31:20.431Z,0.00
2022-08-07T10:32:50.978Z,0.00
2022-08-07T10:33:20.433Z,0.00
2022-08-07T10:34:31.979Z,0.00
2022-08-07T10:35:25.472Z,0.00
2022-08-07T10:36:29.585Z,0.00
2022-08-07T10:37:26.398Z,0.00
2022-08-07T10:38:35.252Z,0.00
2022-08-07T10:39:20.474Z,0.00
2022-08-07T10:40:20.941Z,0.00
2022-08-07T10:41:51.501Z,0.00
2022-08-07T10:42:21.249Z,0.00
2022-08-07T10:43:29.801Z,0.00
2022-08-07T10:44:28.883Z,0.00
2022-08-07T10:45:57.247Z,0.00
2022-08-07T10:46:20.421Z,0.00
2022-08-07T10:47:26.562Z,0.00
2022-08-07T10:48:20.420Z,0.00
2022-08-07T10:49:24.733Z,0.00
2022-08-07T10:50:20.436Z,0.00
2022-08-07T10:51:39.102Z,0.00
2022-08-07T10:52:20.470Z,0.00
2022-08-07T10:53:21.549Z,0.00
2022-08-07T10:54:20.419Z,0.00
2022-08-07T10:55:26.748Z,0.00
2022-08-07T10:56:21.012Z,0.00
2022-08-07T10:57:22.143Z,0.00
2022-08-07T10:58:24.960Z,0.00
2022-08-07T10:59:21.407Z,0.00
2022-08-07T11:00:39.033Z,0.00
2022-08-07T11:01:22.268Z,0.00
2022-08-07T11:02:33.130Z,0.00
2022-08-07T11:03:20.408Z,0.00
2022-08-07T11:04:32.312Z,0.00
2022-08-07T11:05:20.416Z,0.00
2022-08-07T11:06:21.899Z,0.00
2022-08-07T11:07:56.384Z,0.00
2022-08-07T11:08:20.395Z,0.00
2022-08-07T11:10:08.671Z,0.00
2022-08-07T11:10:20.407Z,0.00
2022-08-07T11:11:21.032Z,0.00
2022-08-07T11:12:32.364Z,0.00
2022-08-07T11:14:42.694Z,0.00
2022-08-07T11:14:45.195Z,0.00
2022-08-07T11:15:20.401Z,0.00
2022-08-07T11:16:20.401Z,0.00
2022-08-07T11:17:23.104Z,0.00
2022-08-07T11:18:20.400Z,0.00
2022-08-07T11:19:21.364Z,0.00
2022-08-07T11:20:20.393Z,0.00
2022-08-07T11:21:20.390Z,0.00
2022-08-07T11:22:33.297Z,0.00
2022-08-07T11:23:20.502Z,0.00
2022-08-07T11:24:20.403Z,0.00
2022-08-07T11:25:20.402Z,0.00
2022-08-07T11:26:20.391Z,0.00
2022-08-07T11:27:20.713Z,0.00
2022-08-07T11:28:20.391Z,0.00
2022-08-07T11:29:42.168Z,0.00
2022-08-07T11:30:39.069Z,0.00
2022-08-07T11:31:20.384Z,0.00
2022-08-07T11:32:25.675Z,0.00
2022-08-07T11:33:53.809Z,0.00
2022-08-07T11:34:20.384Z,0.00
2022-08-07T11:35:26.813Z,0.00
2022-08-07T11:36:30.481Z,0.00
2022-08-07T11:37:24.382Z,0.00
2022-08-07T11:38:21.349Z,0.00
2022-08-07T11:39:20.638Z,0.00
2022-08-07T11:40:20.448Z,0.00
2022-08-07T11:41:29.695Z,0.00
2022-08-07T11:42:20.384Z,0.00
2022-08-07T11:43:29.582Z,0.00
2022-08-07T11:44:20.377Z,0.00
2022-08-07T11:45:23.781Z,0.00
2022-08-07T11:46:20.377Z,0.00
2022-08-07T11:47:20.413Z,0.00
2022-08-07T11:48:29.521Z,0.00
2022-08-07T11:49:50.777Z,0.00
2022-08-07T11:50:31.691Z,0.00
2022-08-07T11:51:41.373Z,0.00
2022-08-07T11:52:20.364Z,0.00
2022-08-07T11:53:21.687Z,0.00
2022-08-07T11:54:25.400Z,0.00
2022-08-07T11:56:24.861Z,0.00
2022-08-07T11:56:26.885Z,0.00
2022-08-07T11:57:20.368Z,0.00
2022-08-07T11:58:20.368Z,0.00
2022-08-07T12:00:08.279Z,0.00
2022-08-07T12:00:20.368Z,0.00
2022-08-07T12:01:22.024Z,0.00
2022-08-07T12:02:20.844Z,0.00
2022-08-07T12:03:45.299Z,0.00
2022-08-07T12:04:20.374Z,0.00
2022-08-07T12:05:41.002Z,0.00
2022-08-07T12:06:36.878Z,0.00
2022-08-07T12:07:27.301Z,0.00
2022-08-07T12:08:26.109Z,0.00
2022-08-07T12:09:23.569Z,0.00
2022-08-07T12:10:20.368Z,0.00
2022-08-07T12:11:22.471Z,0.00
2022-08-07T12:12:20.364Z,0.00
2022-08-07T12:13:37.077Z,0.00
2022-08-07T12:14:20.369Z,0.00
2022-08-07T12:15:46.749Z,0.00
2022-08-07T12:16:29.937Z,0.00
2022-08-07T12:17:21.982Z,0.00
2022-08-07T12:18:22.211Z,0.00
2022-08-07T12:19:21.622Z,0.00
2022-08-07T12:20:30.448Z,0.00
2022-08-07T12:21:55.038Z,0.00
2022-08-07T12:22:38.159Z,0.00
2022-08-07T12:23:37.411Z,0.00
2022-08-07T12:24:37.976Z,0.00
2022-08-07T12:26:21.931Z,0.00
2022-08-07T12:26:22.811Z,0.00
2022-08-07T12:27:27.971Z,0.00
2022-08-07T12:28:24.123Z,0.00
2022-08-07T12:29:38.287Z,0.00
2022-08-07T12:30:20.351Z,0.00
2022-08-07T12:31:22.395Z,0.00
2022-08-07T12:32:20.347Z,0.00
2022-08-07T12:33:23.439Z,0.00
2022-08-07T12:34:20.349Z,0.00
2022-08-07T12:35:20.342Z,0.00
2022-08-07T12:36:20.350Z,0.00
2022-08-07T12:37:23.335Z,0.00
2022-08-07T12:38:39.151Z,0.00
2022-08-07T12:39:42.897Z,0.00
2022-08-07T12:40:44.830Z,0.00
2022-08-07T12:41:20.435Z,0.00
2022-08-07T12:42:22.828Z,0.00
2022-08-07T12:44:01.505Z,0.00
2022-08-07T12:44:20.340Z,0.00
2022-08-07T12:45:20.357Z,0.00
2022-08-07T12:46:26.346Z,0.00
2022-08-07T12:47:21.864Z,0.00
2022-08-07T12:48:27.992Z,0.00
2022-08-07T12:49:25.550Z,0.00
2022-08-07T12:50:38.486Z,0.00
2022-08-07T12:51:20.335Z,0.00
2022-08-07T12:52:20.340Z,0.00
2022-08-07T12:53:22.109Z,0.00
2022-08-07T12:54:37.285Z,0.00
2022-08-07T12:55:20.340Z,0.00
2022-08-07T12:56:20.336Z,0.00
2022-08-07T12:57:20.396Z,0.00
2022-08-07T12:58:20.347Z,0.00
2022-08-07T12:59:21.042Z,0.00
2022-08-07T13:00:31.286Z,0.00
2022-08-07T13:01:20.476Z,0.00
2022-08-07T13:02:20.335Z,0.00
2022-08-07T13:03:27.595Z,0.00
2022-08-07T13:04:31.687Z,0.00
2022-08-07T13:06:02.872Z,0.00
2022-08-07T13:06:21.822Z,0.00
2022-08-07T13:08:12.655Z,0.00
2022-08-07T13:08:21.025Z,0.00
2022-08-07T13:10:38.171Z,0.00
2022-08-07T13:10:39.802Z,0.00